Queensbury, New York
Current Conditions -  °F | °C
As of 3:24 PM on Wednesday 26 Nov 2014 (Local Time) from KGFL Reporting Station
Moderate Snow Moderate Snow  
Wind Chill: 24°   Ceiling: 1000
Heat Index: 32°   Visibility: 0.5mi
Dew Point: 30°   Wind: 10mph
Humidity: 92%   Direction: 20°NNE
Pressure: 30.04"   Gusts: NA
Location:  43.38°N, 73.61°W
Report Text: KGFL 262024Z AUTO 02009KT 1/2SM SN FG VV010 00/M01 A3004 RMK AO2 PRESFR P0001 T00001011
Loading
Personal Weather Stations






























Interactive Weather Map New forecast layout! Learn more

10-Day Weather Forecast

Advertisements
Track Severe Weather on mobile